sensor_id;sensor_type;location;lat;lon;timestamp;temperature;humidity
5061;DHT22;2549;52.128;21.068;2023-07-16T00:02:08;25.90;90.80
5061;DHT22;2549;52.128;21.068;2023-07-16T00:04:35;25.90;90.90
5061;DHT22;2549;52.128;21.068;2023-07-16T00:07:02;25.90;91.30
5061;DHT22;2549;52.128;21.068;2023-07-16T00:09:29;25.80;90.90
5061;DHT22;2549;52.128;21.068;2023-07-16T00:11:56;25.80;90.90
5061;DHT22;2549;52.128;21.068;2023-07-16T00:14:24;25.80;90.90
5061;DHT22;2549;52.128;21.068;2023-07-16T00:16:50;25.70;91.10
5061;DHT22;2549;52.128;21.068;2023-07-16T00:19:17;25.70;91.30
5061;DHT22;2549;52.128;21.068;2023-07-16T00:21:44;25.70;91.10
5061;DHT22;2549;52.128;21.068;2023-07-16T00:24:11;25.60;91.20
5061;DHT22;2549;52.128;21.068;2023-07-16T00:26:38;25.70;91.20
5061;DHT22;2549;52.128;21.068;2023-07-16T00:29:04;25.60;91.20
5061;DHT22;2549;52.128;21.068;2023-07-16T00:31:31;25.60;91.20
5061;DHT22;2549;52.128;21.068;2023-07-16T00:33:58;25.60;91.30
5061;DHT22;2549;52.128;21.068;2023-07-16T00:36:25;25.60;91.10
5061;DHT22;2549;52.128;21.068;2023-07-16T00:38:52;25.60;91.10
5061;DHT22;2549;52.128;21.068;2023-07-16T00:41:19;25.60;91.10
5061;DHT22;2549;52.128;21.068;2023-07-16T00:43:45;25.60;91.10
5061;DHT22;2549;52.128;21.068;2023-07-16T00:46:12;25.60;91.10
5061;DHT22;2549;52.128;21.068;2023-07-16T00:48:40;25.60;91.30
5061;DHT22;2549;52.128;21.068;2023-07-16T00:51:08;25.50;91.20
5061;DHT22;2549;52.128;21.068;2023-07-16T00:53:35;25.50;91.30
5061;DHT22;2549;52.128;21.068;2023-07-16T00:56:02;25.50;91.40
5061;DHT22;2549;52.128;21.068;2023-07-16T00:58:29;25.50;91.30
5061;DHT22;2549;52.128;21.068;2023-07-16T01:00:56;25.40;91.40
5061;DHT22;2549;52.128;21.068;2023-07-16T01:03:23;25.40;91.40
5061;DHT22;2549;52.128;21.068;2023-07-16T01:08:45;25.40;91.50
5061;DHT22;2549;52.128;21.068;2023-07-16T01:11:14;25.30;91.40
5061;DHT22;2549;52.128;21.068;2023-07-16T01:13:42;25.30;91.60
5061;DHT22;2549;52.128;21.068;2023-07-16T01:16:23;25.30;91.50
5061;DHT22;2549;52.128;21.068;2023-07-16T01:18:50;25.30;91.60
5061;DHT22;2549;52.128;21.068;2023-07-16T01:21:19;25.30;91.70
5061;DHT22;2549;52.128;21.068;2023-07-16T01:24:10;25.30;91.70
5061;DHT22;2549;52.128;21.068;2023-07-16T01:26:52;25.30;91.80
5061;DHT22;2549;52.128;21.068;2023-07-16T01:29:31;25.20;91.80
5061;DHT22;2549;52.128;21.068;2023-07-16T01:32:01;25.20;91.90
5061;DHT22;2549;52.128;21.068;2023-07-16T01:34:32;25.20;92.00
5061;DHT22;2549;52.128;21.068;2023-07-16T01:37:01;25.20;92.00
5061;DHT22;2549;52.128;21.068;2023-07-16T01:39:28;25.20;92.10
5061;DHT22;2549;52.128;21.068;2023-07-16T01:41:56;25.20;92.10
5061;DHT22;2549;52.128;21.068;2023-07-16T01:44:23;25.20;92.30
5061;DHT22;2549;52.128;21.068;2023-07-16T01:47:10;25.20;92.30
5061;DHT22;2549;52.128;21.068;2023-07-16T01:49:38;25.10;92.40
5061;DHT22;2549;52.128;21.068;2023-07-16T01:52:06;25.10;92.60
5061;DHT22;2549;52.128;21.068;2023-07-16T01:54:33;25.10;92.70
5061;DHT22;2549;52.128;21.068;2023-07-16T01:57:00;25.10;92.90
5061;DHT22;2549;52.128;21.068;2023-07-16T01:59:27;25.00;92.90
5061;DHT22;2549;52.128;21.068;2023-07-16T02:02:31;25.00;93.10
5061;DHT22;2549;52.128;21.068;2023-07-16T02:04:58;25.00;93.20
5061;DHT22;2549;52.128;21.068;2023-07-16T02:07:25;24.90;93.30
5061;DHT22;2549;52.128;21.068;2023-07-16T02:09:52;24.90;93.40
5061;DHT22;2549;52.128;21.068;2023-07-16T02:12:19;24.90;93.50
5061;DHT22;2549;52.128;21.068;2023-07-16T02:14:45;24.80;93.50
5061;DHT22;2549;52.128;21.068;2023-07-16T02:17:12;24.80;93.70
5061;DHT22;2549;52.128;21.068;2023-07-16T02:19:39;24.80;93.80
5061;DHT22;2549;52.128;21.068;2023-07-16T02:22:07;24.80;93.90
5061;DHT22;2549;52.128;21.068;2023-07-16T02:24:34;24.80;94.00
5061;DHT22;2549;52.128;21.068;2023-07-16T02:27:02;24.80;94.10
5061;DHT22;2549;52.128;21.068;2023-07-16T02:29:29;24.70;94.20
5061;DHT22;2549;52.128;21.068;2023-07-16T02:31:57;24.70;94.30
5061;DHT22;2549;52.128;21.068;2023-07-16T02:34:24;24.70;94.30
5061;DHT22;2549;52.128;21.068;2023-07-16T02:36:51;24.70;94.40
5061;DHT22;2549;52.128;21.068;2023-07-16T02:39:18;24.70;94.50
5061;DHT22;2549;52.128;21.068;2023-07-16T02:41:47;24.60;94.50
5061;DHT22;2549;52.128;21.068;2023-07-16T02:44:14;24.60;94.70
5061;DHT22;2549;52.128;21.068;2023-07-16T02:46:41;24.60;94.80
5061;DHT22;2549;52.128;21.068;2023-07-16T02:49:08;24.60;94.90
5061;DHT22;2549;52.128;21.068;2023-07-16T02:51:35;24.60;94.90
5061;DHT22;2549;52.128;21.068;2023-07-16T02:54:02;24.50;94.90
5061;DHT22;2549;52.128;21.068;2023-07-16T02:56:29;24.50;95.00
5061;DHT22;2549;52.128;21.068;2023-07-16T02:58:56;24.50;95.10
5061;DHT22;2549;52.128;21.068;2023-07-16T03:01:22;24.50;95.20
5061;DHT22;2549;52.128;21.068;2023-07-16T03:03:49;24.50;95.30
5061;DHT22;2549;52.128;21.068;2023-07-16T03:06:16;24.50;95.30
5061;DHT22;2549;52.128;21.068;2023-07-16T03:08:48;24.40;95.30
5061;DHT22;2549;52.128;21.068;2023-07-16T03:11:15;24.40;95.40
5061;DHT22;2549;52.128;21.068;2023-07-16T03:13:41;24.40;95.50
5061;DHT22;2549;52.128;21.068;2023-07-16T03:16:08;24.40;95.60
5061;DHT22;2549;52.128;21.068;2023-07-16T03:18:36;24.40;95.60
5061;DHT22;2549;52.128;21.068;2023-07-16T03:21:03;24.40;95.70
5061;DHT22;2549;52.128;21.068;2023-07-16T03:23:30;24.40;95.70
5061;DHT22;2549;52.128;21.068;2023-07-16T03:25:56;24.30;95.80
5061;DHT22;2549;52.128;21.068;2023-07-16T03:28:23;24.40;95.90
5061;DHT22;2549;52.128;21.068;2023-07-16T03:30:50;24.40;95.90
5061;DHT22;2549;52.128;21.068;2023-07-16T03:33:17;24.40;96.00
5061;DHT22;2549;52.128;21.068;2023-07-16T03:35:45;24.40;96.10
5061;DHT22;2549;52.128;21.068;2023-07-16T03:38:13;24.30;96.10
5061;DHT22;2549;52.128;21.068;2023-07-16T03:40:46;24.30;96.30
5061;DHT22;2549;52.128;21.068;2023-07-16T03:43:14;24.30;96.40
5061;DHT22;2549;52.128;21.068;2023-07-16T03:45:42;24.30;96.50
5061;DHT22;2549;52.128;21.068;2023-07-16T03:48:09;24.30;96.50
5061;DHT22;2549;52.128;21.068;2023-07-16T03:50:36;24.30;96.60
5061;DHT22;2549;52.128;21.068;2023-07-16T03:53:03;24.40;96.70
5061;DHT22;2549;52.128;21.068;2023-07-16T03:55:30;24.40;96.90
5061;DHT22;2549;52.128;21.068;2023-07-16T03:57:56;24.40;97.00
5061;DHT22;2549;52.128;21.068;2023-07-16T04:00:23;24.40;97.00
5061;DHT22;2549;52.128;21.068;2023-07-16T04:02:50;24.40;97.20
5061;DHT22;2549;52.128;21.068;2023-07-16T04:05:18;24.40;97.20
5061;DHT22;2549;52.128;21.068;2023-07-16T04:07:48;24.40;97.30
5061;DHT22;2549;52.128;21.068;2023-07-16T04:10:15;24.50;97.40
5061;DHT22;2549;52.128;21.068;2023-07-16T04:12:42;24.50;97.60
5061;DHT22;2549;52.128;21.068;2023-07-16T04:15:09;24.50;97.70
5061;DHT22;2549;52.128;21.068;2023-07-16T04:17:37;24.60;97.80
5061;DHT22;2549;52.128;21.068;2023-07-16T04:20:04;24.60;97.80
5061;DHT22;2549;52.128;21.068;2023-07-16T04:22:34;24.60;97.80
5061;DHT22;2549;52.128;21.068;2023-07-16T04:25:01;24.70;98.30
5061;DHT22;2549;52.128;21.068;2023-07-16T04:27:28;24.70;98.20
5061;DHT22;2549;52.128;21.068;2023-07-16T04:29:55;24.70;98.20
5061;DHT22;2549;52.128;21.068;2023-07-16T04:32:22;24.70;98.30
5061;DHT22;2549;52.128;21.068;2023-07-16T04:34:49;24.80;98.40
5061;DHT22;2549;52.128;21.068;2023-07-16T04:37:16;24.80;98.50
5061;DHT22;2549;52.128;21.068;2023-07-16T04:39:42;24.90;98.60
5061;DHT22;2549;52.128;21.068;2023-07-16T04:42:09;24.90;98.60
5061;DHT22;2549;52.128;21.068;2023-07-16T04:44:36;24.90;98.50
5061;DHT22;2549;52.128;21.068;2023-07-16T04:47:03;25.00;98.70
5061;DHT22;2549;52.128;21.068;2023-07-16T04:49:35;25.10;98.80
5061;DHT22;2549;52.128;21.068;2023-07-16T04:52:05;25.10;98.80
5061;DHT22;2549;52.128;21.068;2023-07-16T04:54:36;25.20;98.80
5061;DHT22;2549;52.128;21.068;2023-07-16T04:57:06;25.20;99.00
5061;DHT22;2549;52.128;21.068;2023-07-16T04:59:33;25.30;99.00
5061;DHT22;2549;52.128;21.068;2023-07-16T05:02:04;25.30;99.20
5061;DHT22;2549;52.128;21.068;2023-07-16T05:04:31;25.40;98.90
5061;DHT22;2549;52.128;21.068;2023-07-16T05:06:58;25.40;98.80
5061;DHT22;2549;52.128;21.068;2023-07-16T05:09:25;25.50;98.80
5061;DHT22;2549;52.128;21.068;2023-07-16T05:11:52;25.50;98.80
5061;DHT22;2549;52.128;21.068;2023-07-16T05:14:19;25.50;99.10
5061;DHT22;2549;52.128;21.068;2023-07-16T05:16:46;25.50;98.80
5061;DHT22;2549;52.128;21.068;2023-07-16T05:19:13;25.60;98.90
5061;DHT22;2549;52.128;21.068;2023-07-16T05:21:40;25.60;98.80
5061;DHT22;2549;52.128;21.068;2023-07-16T05:24:06;25.70;98.90
5061;DHT22;2549;52.128;21.068;2023-07-16T05:26:33;25.70;98.90
5061;DHT22;2549;52.128;21.068;2023-07-16T05:29:00;25.70;99.10
5061;DHT22;2549;52.128;21.068;2023-07-16T05:31:27;25.70;99.10
5061;DHT22;2549;52.128;21.068;2023-07-16T05:33:54;25.80;99.30
5061;DHT22;2549;52.128;21.068;2023-07-16T05:36:20;25.80;99.30
5061;DHT22;2549;52.128;21.068;2023-07-16T05:38:47;25.90;99.40
5061;DHT22;2549;52.128;21.068;2023-07-16T05:41:14;25.90;99.30
5061;DHT22;2549;52.128;21.068;2023-07-16T05:43:41;26.00;99.40
5061;DHT22;2549;52.128;21.068;2023-07-16T05:46:08;26.00;99.20
5061;DHT22;2549;52.128;21.068;2023-07-16T05:48:35;26.00;99.40
5061;DHT22;2549;52.128;21.068;2023-07-16T05:51:02;26.00;99.40
5061;DHT22;2549;52.128;21.068;2023-07-16T05:53:28;26.00;99.40
5061;DHT22;2549;52.128;21.068;2023-07-16T05:55:55;26.00;99.40
5061;DHT22;2549;52.128;21.068;2023-07-16T05:58:22;26.10;99.40
5061;DHT22;2549;52.128;21.068;2023-07-16T06:00:49;26.10;99.50
5061;DHT22;2549;52.128;21.068;2023-07-16T06:03:16;26.10;99.50
5061;DHT22;2549;52.128;21.068;2023-07-16T06:05:45;26.20;99.60
5061;DHT22;2549;52.128;21.068;2023-07-16T06:08:12;26.20;99.70
5061;DHT22;2549;52.128;21.068;2023-07-16T06:10:39;26.30;99.90
5061;DHT22;2549;52.128;21.068;2023-07-16T06:13:06;26.30;99.90
5061;DHT22;2549;52.128;21.068;2023-07-16T06:15:32;26.30;99.90
5061;DHT22;2549;52.128;21.068;2023-07-16T06:17:59;26.40;99.90
5061;DHT22;2549;52.128;21.068;2023-07-16T06:20:26;26.40;99.90
5061;DHT22;2549;52.128;21.068;2023-07-16T06:22:53;26.40;99.90
5061;DHT22;2549;52.128;21.068;2023-07-16T06:25:20;26.40;99.90
5061;DHT22;2549;52.128;21.068;2023-07-16T06:27:47;26.50;99.90
5061;DHT22;2549;52.128;21.068;2023-07-16T06:30:14;26.50;99.90
5061;DHT22;2549;52.128;21.068;2023-07-16T06:32:41;26.50;99.90
5061;DHT22;2549;52.128;21.068;2023-07-16T06:35:08;26.60;99.90
5061;DHT22;2549;52.128;21.068;2023-07-16T06:37:35;26.60;99.90
5061;DHT22;2549;52.128;21.068;2023-07-16T06:40:02;26.60;99.90
5061;DHT22;2549;52.128;21.068;2023-07-16T06:42:30;26.60;99.90
5061;DHT22;2549;52.128;21.068;2023-07-16T06:44:57;26.60;99.90
5061;DHT22;2549;52.128;21.068;2023-07-16T06:47:24;26.60;99.90
5061;DHT22;2549;52.128;21.068;2023-07-16T06:49:50;26.60;99.90
5061;DHT22;2549;52.128;21.068;2023-07-16T06:52:21;26.70;99.90
5061;DHT22;2549;52.128;21.068;2023-07-16T06:54:49;26.70;99.90
5061;DHT22;2549;52.128;21.068;2023-07-16T06:57:15;26.80;99.90
5061;DHT22;2549;52.128;21.068;2023-07-16T06:59:42;26.80;99.90
5061;DHT22;2549;52.128;21.068;2023-07-16T07:02:09;26.90;99.90
5061;DHT22;2549;52.128;21.068;2023-07-16T07:04:36;26.90;99.90
5061;DHT22;2549;52.128;21.068;2023-07-16T07:07:03;26.90;99.90
5061;DHT22;2549;52.128;21.068;2023-07-16T07:09:30;26.90;99.90
5061;DHT22;2549;52.128;21.068;2023-07-16T07:11:57;27.00;99.90
5061;DHT22;2549;52.128;21.068;2023-07-16T07:14:24;27.00;99.90
5061;DHT22;2549;52.128;21.068;2023-07-16T07:16:51;27.10;99.90
5061;DHT22;2549;52.128;21.068;2023-07-16T07:19:17;27.10;99.90
5061;DHT22;2549;52.128;21.068;2023-07-16T07:21:44;27.10;99.50
5061;DHT22;2549;52.128;21.068;2023-07-16T07:24:12;27.10;99.40
5061;DHT22;2549;52.128;21.068;2023-07-16T07:26:39;27.20;99.40
5061;DHT22;2549;52.128;21.068;2023-07-16T07:29:06;27.20;99.40
5061;DHT22;2549;52.128;21.068;2023-07-16T07:31:33;27.20;99.40
5061;DHT22;2549;52.128;21.068;2023-07-16T07:34:00;27.30;99.30
5061;DHT22;2549;52.128;21.068;2023-07-16T07:36:27;27.30;99.30
5061;DHT22;2549;52.128;21.068;2023-07-16T07:38:54;27.30;99.20
5061;DHT22;2549;52.128;21.068;2023-07-16T07:41:20;27.30;99.10
5061;DHT22;2549;52.128;21.068;2023-07-16T07:43:47;27.30;98.80
5061;DHT22;2549;52.128;21.068;2023-07-16T07:46:14;27.40;98.90
5061;DHT22;2549;52.128;21.068;2023-07-16T07:48:41;27.40;98.80
5061;DHT22;2549;52.128;21.068;2023-07-16T07:51:08;27.40;98.70
5061;DHT22;2549;52.128;21.068;2023-07-16T07:53:35;27.40;98.50
5061;DHT22;2549;52.128;21.068;2023-07-16T07:56:02;27.50;98.30
5061;DHT22;2549;52.128;21.068;2023-07-16T07:58:29;27.50;98.30
5061;DHT22;2549;52.128;21.068;2023-07-16T08:00:56;27.50;98.10
5061;DHT22;2549;52.128;21.068;2023-07-16T08:03:22;27.50;98.30
5061;DHT22;2549;52.128;21.068;2023-07-16T08:05:50;27.60;97.90
5061;DHT22;2549;52.128;21.068;2023-07-16T08:08:17;27.60;97.90
5061;DHT22;2549;52.128;21.068;2023-07-16T08:10:43;27.70;97.80
5061;DHT22;2549;52.128;21.068;2023-07-16T08:13:12;27.70;97.50
5061;DHT22;2549;52.128;21.068;2023-07-16T08:15:39;27.60;97.40
5061;DHT22;2549;52.128;21.068;2023-07-16T08:18:06;27.70;97.40
5061;DHT22;2549;52.128;21.068;2023-07-16T08:20:33;27.70;97.00
5061;DHT22;2549;52.128;21.068;2023-07-16T08:23:02;27.70;96.90
5061;DHT22;2549;52.128;21.068;2023-07-16T08:25:29;27.70;96.40
5061;DHT22;2549;52.128;21.068;2023-07-16T08:27:56;27.70;95.50
5061;DHT22;2549;52.128;21.068;2023-07-16T08:30:23;27.80;95.70
5061;DHT22;2549;52.128;21.068;2023-07-16T08:32:49;27.80;95.80
5061;DHT22;2549;52.128;21.068;2023-07-16T08:35:16;27.80;95.60
5061;DHT22;2549;52.128;21.068;2023-07-16T08:37:44;27.80;95.30
5061;DHT22;2549;52.128;21.068;2023-07-16T08:40:12;27.90;95.30
5061;DHT22;2549;52.128;21.068;2023-07-16T08:42:40;28.00;94.40
5061;DHT22;2549;52.128;21.068;2023-07-16T08:45:07;28.00;94.50
5061;DHT22;2549;52.128;21.068;2023-07-16T08:47:36;28.00;94.30
5061;DHT22;2549;52.128;21.068;2023-07-16T08:50:04;28.20;93.90
5061;DHT22;2549;52.128;21.068;2023-07-16T08:52:31;28.20;93.80
5061;DHT22;2549;52.128;21.068;2023-07-16T08:54:58;28.30;94.00
5061;DHT22;2549;52.128;21.068;2023-07-16T08:57:25;28.30;93.90
5061;DHT22;2549;52.128;21.068;2023-07-16T08:59:53;28.30;93.90
5061;DHT22;2549;52.128;21.068;2023-07-16T09:02:22;28.30;93.90
5061;DHT22;2549;52.128;21.068;2023-07-16T09:04:50;28.30;93.50
5061;DHT22;2549;52.128;21.068;2023-07-16T09:07:21;28.30;93.30
5061;DHT22;2549;52.128;21.068;2023-07-16T09:09:56;28.40;93.30
5061;DHT22;2549;52.128;21.068;2023-07-16T09:12:25;28.50;93.20
5061;DHT22;2549;52.128;21.068;2023-07-16T09:14:53;28.50;92.70
5061;DHT22;2549;52.128;21.068;2023-07-16T09:17:24;28.60;92.70
5061;DHT22;2549;52.128;21.068;2023-07-16T09:19:52;28.60;92.90
5061;DHT22;2549;52.128;21.068;2023-07-16T09:22:19;28.60;93.10
5061;DHT22;2549;52.128;21.068;2023-07-16T09:24:47;28.60;93.20
5061;DHT22;2549;52.128;21.068;2023-07-16T09:27:14;28.60;93.20
5061;DHT22;2549;52.128;21.068;2023-07-16T09:29:41;28.70;93.20
5061;DHT22;2549;52.128;21.068;2023-07-16T09:32:09;28.70;93.00
5061;DHT22;2549;52.128;21.068;2023-07-16T09:34:36;28.70;92.90
5061;DHT22;2549;52.128;21.068;2023-07-16T09:37:05;28.80;92.80
5061;DHT22;2549;52.128;21.068;2023-07-16T09:39:33;28.80;92.70
5061;DHT22;2549;52.128;21.068;2023-07-16T09:42:02;28.80;92.40
5061;DHT22;2549;52.128;21.068;2023-07-16T09:44:29;28.90;92.30
5061;DHT22;2549;52.128;21.068;2023-07-16T09:46:57;28.90;92.70
5061;DHT22;2549;52.128;21.068;2023-07-16T09:49:28;28.90;92.30
5061;DHT22;2549;52.128;21.068;2023-07-16T09:51:57;29.00;92.30
5061;DHT22;2549;52.128;21.068;2023-07-16T09:54:25;29.00;92.30
5061;DHT22;2549;52.128;21.068;2023-07-16T09:56:58;29.00;92.80
5061;DHT22;2549;52.128;21.068;2023-07-16T09:59:29;29.00;92.50
5061;DHT22;2549;52.128;21.068;2023-07-16T10:01:57;29.00;92.70
5061;DHT22;2549;52.128;21.068;2023-07-16T10:04:24;29.00;92.40
5061;DHT22;2549;52.128;21.068;2023-07-16T10:06:57;29.00;92.30
5061;DHT22;2549;52.128;21.068;2023-07-16T10:12:11;29.10;91.40
5061;DHT22;2549;52.128;21.068;2023-07-16T10:14:45;29.20;91.70
5061;DHT22;2549;52.128;21.068;2023-07-16T10:17:15;29.20;92.10
5061;DHT22;2549;52.128;21.068;2023-07-16T10:19:56;29.30;92.00
5061;DHT22;2549;52.128;21.068;2023-07-16T10:22:37;29.40;91.50
5061;DHT22;2549;52.128;21.068;2023-07-16T10:27:46;29.50;91.10
5061;DHT22;2549;52.128;21.068;2023-07-16T10:30:13;29.50;90.70
5061;DHT22;2549;52.128;21.068;2023-07-16T10:32:40;29.60;91.00
5061;DHT22;2549;52.128;21.068;2023-07-16T10:35:08;29.60;91.00
5061;DHT22;2549;52.128;21.068;2023-07-16T10:37:36;29.50;91.00
5061;DHT22;2549;52.128;21.068;2023-07-16T10:40:04;29.60;91.10
5061;DHT22;2549;52.128;21.068;2023-07-16T10:42:32;29.60;91.10
5061;DHT22;2549;52.128;21.068;2023-07-16T10:45:00;29.60;91.10
5061;DHT22;2549;52.128;21.068;2023-07-16T10:47:33;29.70;91.00
5061;DHT22;2549;52.128;21.068;2023-07-16T10:50:03;29.80;91.00
5061;DHT22;2549;52.128;21.068;2023-07-16T10:52:31;29.80;91.10
5061;DHT22;2549;52.128;21.068;2023-07-16T10:54:58;29.90;90.90
5061;DHT22;2549;52.128;21.068;2023-07-16T10:57:26;29.90;91.20
5061;DHT22;2549;52.128;21.068;2023-07-16T10:59:55;29.90;91.30
5061;DHT22;2549;52.128;21.068;2023-07-16T11:02:23;30.00;91.00
5061;DHT22;2549;52.128;21.068;2023-07-16T11:04:51;30.10;91.30
5061;DHT22;2549;52.128;21.068;2023-07-16T11:07:21;30.10;91.40
5061;DHT22;2549;52.128;21.068;2023-07-16T11:09:49;30.20;91.40
5061;DHT22;2549;52.128;21.068;2023-07-16T11:12:23;30.20;91.30
5061;DHT22;2549;52.128;21.068;2023-07-16T11:14:52;30.30;91.70
5061;DHT22;2549;52.128;21.068;2023-07-16T11:17:21;30.30;91.60
5061;DHT22;2549;52.128;21.068;2023-07-16T11:19:51;30.30;91.90
5061;DHT22;2549;52.128;21.068;2023-07-16T11:22:19;30.30;91.50
5061;DHT22;2549;52.128;21.068;2023-07-16T11:24:50;30.30;91.70
5061;DHT22;2549;52.128;21.068;2023-07-16T11:27:22;30.20;91.90
5061;DHT22;2549;52.128;21.068;2023-07-16T11:29:51;30.20;92.00
5061;DHT22;2549;52.128;21.068;2023-07-16T11:32:41;30.20;91.80
5061;DHT22;2549;52.128;21.068;2023-07-16T11:35:15;30.20;92.00
5061;DHT22;2549;52.128;21.068;2023-07-16T11:37:43;30.10;92.10
5061;DHT22;2549;52.128;21.068;2023-07-16T11:40:14;30.20;92.20
5061;DHT22;2549;52.128;21.068;2023-07-16T11:42:41;30.20;91.80
5061;DHT22;2549;52.128;21.068;2023-07-16T11:45:35;30.30;91.90
5061;DHT22;2549;52.128;21.068;2023-07-16T11:48:03;30.30;91.90
5061;DHT22;2549;52.128;21.068;2023-07-16T11:50:31;30.30;92.00
5061;DHT22;2549;52.128;21.068;2023-07-16T11:53:01;30.30;91.60
5061;DHT22;2549;52.128;21.068;2023-07-16T11:55:28;30.30;91.80
5061;DHT22;2549;52.128;21.068;2023-07-16T11:57:55;30.30;91.70
5061;DHT22;2549;52.128;21.068;2023-07-16T12:00:26;30.30;91.60
5061;DHT22;2549;52.128;21.068;2023-07-16T12:02:53;30.30;91.80
5061;DHT22;2549;52.128;21.068;2023-07-16T12:05:21;30.40;91.80
5061;DHT22;2549;52.128;21.068;2023-07-16T12:08:10;30.40;91.90
5061;DHT22;2549;52.128;21.068;2023-07-16T12:10:41;30.50;91.70
5061;DHT22;2549;52.128;21.068;2023-07-16T12:13:08;30.60;91.60
5061;DHT22;2549;52.128;21.068;2023-07-16T12:15:35;30.60;91.60
5061;DHT22;2549;52.128;21.068;2023-07-16T12:18:02;30.60;91.80
5061;DHT22;2549;52.128;21.068;2023-07-16T12:20:29;30.60;91.70
5061;DHT22;2549;52.128;21.068;2023-07-16T12:22:56;30.60;91.50
5061;DHT22;2549;52.128;21.068;2023-07-16T12:25:23;30.80;91.20
5061;DHT22;2549;52.128;21.068;2023-07-16T12:27:50;30.90;91.30
5061;DHT22;2549;52.128;21.068;2023-07-16T12:30:21;30.90;91.00
5061;DHT22;2549;52.128;21.068;2023-07-16T12:32:48;31.00;91.60
5061;DHT22;2549;52.128;21.068;2023-07-16T12:35:15;31.00;93.30
5061;DHT22;2549;52.128;21.068;2023-07-16T12:37:42;31.00;92.20
5061;DHT22;2549;52.128;21.068;2023-07-16T12:40:09;31.00;92.40
5061;DHT22;2549;52.128;21.068;2023-07-16T12:42:37;31.10;91.80
5061;DHT22;2549;52.128;21.068;2023-07-16T12:45:04;31.10;90.00
5061;DHT22;2549;52.128;21.068;2023-07-16T12:47:31;31.30;89.70
5061;DHT22;2549;52.128;21.068;2023-07-16T12:49:58;31.40;90.00
5061;DHT22;2549;52.128;21.068;2023-07-16T12:52:25;31.40;89.90
5061;DHT22;2549;52.128;21.068;2023-07-16T12:54:52;31.50;88.10
5061;DHT22;2549;52.128;21.068;2023-07-16T12:57:22;31.50;88.30
5061;DHT22;2549;52.128;21.068;2023-07-16T12:59:49;31.50;88.00
5061;DHT22;2549;52.128;21.068;2023-07-16T13:02:16;31.60;88.30
5061;DHT22;2549;52.128;21.068;2023-07-16T13:04:43;31.60;85.80
5061;DHT22;2549;52.128;21.068;2023-07-16T13:07:10;31.70;85.80
5061;DHT22;2549;52.128;21.068;2023-07-16T13:09:39;31.80;84.30
5061;DHT22;2549;52.128;21.068;2023-07-16T13:12:07;31.80;83.80
5061;DHT22;2549;52.128;21.068;2023-07-16T13:14:33;31.90;84.60
5061;DHT22;2549;52.128;21.068;2023-07-16T13:17:00;31.90;85.20
5061;DHT22;2549;52.128;21.068;2023-07-16T13:19:28;31.90;83.40
5061;DHT22;2549;52.128;21.068;2023-07-16T13:21:55;31.90;84.10
5061;DHT22;2549;52.128;21.068;2023-07-16T13:24:22;31.80;84.40
5061;DHT22;2549;52.128;21.068;2023-07-16T13:26:48;31.90;82.50
5061;DHT22;2549;52.128;21.068;2023-07-16T13:29:15;31.90;81.30
5061;DHT22;2549;52.128;21.068;2023-07-16T13:31:42;31.90;82.10
5061;DHT22;2549;52.128;21.068;2023-07-16T13:34:09;32.00;81.60
5061;DHT22;2549;52.128;21.068;2023-07-16T13:36:36;32.10;81.00
5061;DHT22;2549;52.128;21.068;2023-07-16T13:39:03;32.30;79.80
5061;DHT22;2549;52.128;21.068;2023-07-16T13:41:31;32.30;80.00
5061;DHT22;2549;52.128;21.068;2023-07-16T13:43:58;32.30;80.20
5061;DHT22;2549;52.128;21.068;2023-07-16T13:46:25;32.40;79.40
5061;DHT22;2549;52.128;21.068;2023-07-16T13:48:52;32.40;79.30
5061;DHT22;2549;52.128;21.068;2023-07-16T13:51:25;32.40;78.20
5061;DHT22;2549;52.128;21.068;2023-07-16T13:53:52;32.40;78.50
5061;DHT22;2549;52.128;21.068;2023-07-16T13:56:19;32.40;77.90
5061;DHT22;2549;52.128;21.068;2023-07-16T13:58:46;32.40;78.00
5061;DHT22;2549;52.128;21.068;2023-07-16T14:01:14;32.40;77.90
5061;DHT22;2549;52.128;21.068;2023-07-16T14:03:41;32.40;77.20
5061;DHT22;2549;52.128;21.068;2023-07-16T14:06:08;32.40;76.10
5061;DHT22;2549;52.128;21.068;2023-07-16T14:08:35;32.40;76.90
5061;DHT22;2549;52.128;21.068;2023-07-16T14:11:02;32.40;76.30
5061;DHT22;2549;52.128;21.068;2023-07-16T14:13:30;32.40;76.70
5061;DHT22;2549;52.128;21.068;2023-07-16T14:15:57;32.50;76.10
5061;DHT22;2549;52.128;21.068;2023-07-16T14:18:24;32.50;76.30
5061;DHT22;2549;52.128;21.068;2023-07-16T14:20:50;32.60;77.10
5061;DHT22;2549;52.128;21.068;2023-07-16T14:23:17;32.60;75.60
5061;DHT22;2549;52.128;21.068;2023-07-16T14:25:44;32.60;75.50
5061;DHT22;2549;52.128;21.068;2023-07-16T14:28:11;32.70;75.30
5061;DHT22;2549;52.128;21.068;2023-07-16T14:30:38;32.70;75.50
5061;DHT22;2549;52.128;21.068;2023-07-16T14:33:05;32.70;75.20
5061;DHT22;2549;52.128;21.068;2023-07-16T14:35:33;32.60;75.10
5061;DHT22;2549;52.128;21.068;2023-07-16T14:38:04;32.60;75.50
5061;DHT22;2549;52.128;21.068;2023-07-16T14:40:31;32.60;75.60
5061;DHT22;2549;52.128;21.068;2023-07-16T14:42:58;32.60;76.00
5061;DHT22;2549;52.128;21.068;2023-07-16T14:45:25;32.50;76.10
5061;DHT22;2549;52.128;21.068;2023-07-16T14:47:53;32.50;75.90
5061;DHT22;2549;52.128;21.068;2023-07-16T14:50:19;32.40;75.50
5061;DHT22;2549;52.128;21.068;2023-07-16T14:52:46;32.40;75.40
5061;DHT22;2549;52.128;21.068;2023-07-16T14:55:13;32.40;75.30
5061;DHT22;2549;52.128;21.068;2023-07-16T14:57:42;32.50;75.60
5061;DHT22;2549;52.128;21.068;2023-07-16T15:00:10;32.50;75.90
5061;DHT22;2549;52.128;21.068;2023-07-16T15:02:38;32.40;76.20
5061;DHT22;2549;52.128;21.068;2023-07-16T15:05:06;32.40;75.60
5061;DHT22;2549;52.128;21.068;2023-07-16T15:07:34;32.40;75.10
5061;DHT22;2549;52.128;21.068;2023-07-16T15:10:02;32.40;75.10
5061;DHT22;2549;52.128;21.068;2023-07-16T15:12:30;32.40;74.60
5061;DHT22;2549;52.128;21.068;2023-07-16T15:14:57;32.50;74.90
5061;DHT22;2549;52.128;21.068;2023-07-16T15:17:24;32.50;75.20
5061;DHT22;2549;52.128;21.068;2023-07-16T15:19:51;32.40;76.60
5061;DHT22;2549;52.128;21.068;2023-07-16T15:22:18;32.40;74.10
5061;DHT22;2549;52.128;21.068;2023-07-16T15:24:47;32.40;73.90
5061;DHT22;2549;52.128;21.068;2023-07-16T15:27:15;32.40;74.10
5061;DHT22;2549;52.128;21.068;2023-07-16T15:29:42;32.40;73.60
5061;DHT22;2549;52.128;21.068;2023-07-16T15:32:09;32.30;74.10
5061;DHT22;2549;52.128;21.068;2023-07-16T15:34:36;32.30;73.50
5061;DHT22;2549;52.128;21.068;2023-07-16T15:37:03;32.30;73.20
5061;DHT22;2549;52.128;21.068;2023-07-16T15:39:31;32.20;73.00
5061;DHT22;2549;52.128;21.068;2023-07-16T15:41:59;32.20;72.90
5061;DHT22;2549;52.128;21.068;2023-07-16T15:44:26;32.20;72.90
5061;DHT22;2549;52.128;21.068;2023-07-16T15:46:53;32.20;72.90
5061;DHT22;2549;52.128;21.068;2023-07-16T15:49:20;32.20;73.20
5061;DHT22;2549;52.128;21.068;2023-07-16T15:51:47;32.20;73.40
5061;DHT22;2549;52.128;21.068;2023-07-16T15:54:13;32.20;73.50
5061;DHT22;2549;52.128;21.068;2023-07-16T15:56:40;32.20;73.40
5061;DHT22;2549;52.128;21.068;2023-07-16T15:59:08;32.20;73.40